Time;durP1;ratioP1;P1;durP2;ratioP2;P2;SDS_P1;SDS_P2;PMS_P1;PMS_P2;Temp;Humidity;BMP_temperature;BMP_pressure;BME280_temperature;BME280_humidity;BME280_pressure;Samples;Min_cycle;Max_cycle;Signal;HPM_P1;HPM_P2
2024/02/01 00:00:12;;;;;;;;;11.00;10.33;;;;;;;;4980126;28;45366;-72
2024/02/01 00:02:37;;;;;;;;;13.25;11.75;;;;;;;;4980709;28;46118;-73
2024/02/01 00:05:03;;;;;;;;;13.00;11.00;;;;;;;;4980404;28;45611;-73
2024/02/01 00:07:28;;;;;;;;;11.25;11.00;;;;;;;;4979610;28;45381;-72
2024/02/01 00:09:53;;;;;;;;;11.00;11.00;;;;;;;;4971266;28;45485;-72
2024/02/01 00:12:19;;;;;;;;;13.00;12.00;;;;;;;;4980328;28;46059;-73
2024/02/01 00:14:44;;;;;;;;;15.00;11.67;;;;;;;;4980112;28;45379;-73
2024/02/01 00:17:09;;;;;;;;;10.00;10.00;;;;;;;;4979862;28;45497;-73
2024/02/01 00:19:35;;;;;;;;;11.50;11.50;;;;;;;;4979033;28;45298;-73
2024/02/01 00:22:00;;;;;;;;;10.50;10.50;;;;;;;;4978248;28;46609;-73
2024/02/01 00:24:25;;;;;;;;;11.00;10.00;;;;;;;;4979945;28;45356;-73
2024/02/01 00:26:50;;;;;;;;;14.00;12.00;;;;;;;;4980229;28;45377;-73
2024/02/01 00:29:15;;;;;;;;;11.00;10.67;;;;;;;;4978567;28;45592;-73
2024/02/01 00:31:40;;;;;;;;;15.00;12.33;;;;;;;;4980186;28;45470;-73
2024/02/01 00:34:06;;;;;;;;;12.67;11.67;;;;;;;;4966813;28;45424;-73
2024/02/01 00:36:31;;;;;;;;;11.33;11.33;;;;;;;;4980279;28;45528;-73
2024/02/01 00:38:56;;;;;;;;;12.00;11.00;;;;;;;;4979945;28;45386;-72
2024/02/01 00:41:21;;;;;;;;;11.00;9.33;;;;;;;;4979940;28;46408;-73
2024/02/01 00:43:46;;;;;;;;;12.67;11.67;;;;;;;;4979889;28;45395;-73
2024/02/01 00:46:13;;;;;;;;;11.00;11.00;;;;;;;;4980057;28;45225;-72
2024/02/01 00:48:38;;;;;;;;;13.50;12.25;;;;;;;;4978849;28;45314;-72
2024/02/01 00:51:04;;;;;;;;;16.75;16.00;;;;;;;;4978971;28;45974;-73
2024/02/01 00:53:29;;;;;;;;;10.67;10.67;;;;;;;;4979715;28;45473;-73
2024/02/01 00:55:55;;;;;;;;;11.00;11.00;;;;;;;;4979759;28;45383;-72
2024/02/01 00:58:21;;;;;;;;;14.00;13.00;;;;;;;;4979195;28;45364;-73
2024/02/01 01:00:46;;;;;;;;;14.67;11.00;;;;;;;;4979736;28;46599;-72
2024/02/01 01:03:11;;;;;;;;;16.75;11.25;;;;;;;;4979467;28;45369;-72
2024/02/01 01:05:36;;;;;;;;;4.75;4.00;;;;;;;;4979229;28;45631;-73
2024/02/01 01:08:02;;;;;;;;;11.00;11.00;;;;;;;;4974851;28;45334;-72
2024/02/01 01:10:27;;;;;;;;;13.75;13.25;;;;;;;;4970010;28;46151;-73
2024/02/01 01:12:52;;;;;;;;;11.00;11.00;;;;;;;;4979111;28;45472;-73
2024/02/01 01:15:17;;;;;;;;;11.00;11.00;;;;;;;;4979902;28;45577;-73
2024/02/01 01:17:43;;;;;;;;;13.00;13.00;;;;;;;;4979362;28;45811;-73
2024/02/01 01:20:08;;;;;;;;;11.33;11.00;;;;;;;;4978118;28;45463;-72
2024/02/01 01:22:34;;;;;;;;;10.75;10.75;;;;;;;;4979343;28;45467;-73
2024/02/01 01:24:59;;;;;;;;;12.00;11.00;;;;;;;;4979626;28;45402;-73
2024/02/01 01:27:24;;;;;;;;;14.00;14.00;;;;;;;;4979873;28;45285;-73
2024/02/01 01:29:49;;;;;;;;;15.67;13.00;;;;;;;;4983112;28;46114;-73
2024/02/01 01:32:15;;;;;;;;;12.00;11.00;;;;;;;;4981472;28;45531;-73
2024/02/01 01:34:40;;;;;;;;;15.50;13.00;;;;;;;;4970586;28;45383;-72
2024/02/01 01:37:05;;;;;;;;;12.25;10.75;;;;;;;;4964916;28;45334;-73
2024/02/01 01:39:30;;;;;;;;;11.00;11.00;;;;;;;;4982698;28;46080;-73
2024/02/01 01:41:56;;;;;;;;;9.67;9.67;;;;;;;;4982737;28;45514;-73
2024/02/01 01:44:21;;;;;;;;;14.00;11.00;;;;;;;;4983001;28;45303;-73
2024/02/01 01:46:46;;;;;;;;;14.00;12.00;;;;;;;;4982736;28;45412;-73
2024/02/01 01:49:11;;;;;;;;;13.00;11.75;;;;;;;;4981779;28;45457;-73
2024/02/01 01:51:37;;;;;;;;;11.50;11.50;;;;;;;;4980709;28;45310;-73
2024/02/01 01:54:03;;;;;;;;;13.50;12.00;;;;;;;;4981565;28;45415;-73
2024/02/01 01:56:28;;;;;;;;;13.50;12.50;;;;;;;;4982297;28;45247;-73
2024/02/01 01:58:54;;;;;;;;;14.25;12.50;;;;;;;;4982078;28;45503;-73
2024/02/01 02:01:19;;;;;;;;;13.50;12.50;;;;;;;;4982408;28;45308;-73
2024/02/01 02:03:46;;;;;;;;;12.25;11.50;;;;;;;;4982583;28;45396;-73
2024/02/01 02:06:11;;;;;;;;;15.00;14.00;;;;;;;;4982082;28;45488;-72
2024/02/01 02:08:37;;;;;;;;;14.75;13.00;;;;;;;;4981806;28;46259;-73
2024/02/01 02:11:04;;;;;;;;;12.33;12.33;;;;;;;;4982258;28;45378;-72
2024/02/01 02:13:29;;;;;;;;;15.50;14.50;;;;;;;;4982298;28;45382;-72
2024/02/01 02:15:54;;;;;;;;;14.67;11.00;;;;;;;;4982063;28;45586;-73
2024/02/01 02:18:19;;;;;;;;;18.33;16.33;;;;;;;;4980992;28;46791;-73
2024/02/01 02:20:47;;;;;;;;;16.67;13.67;;;;;;;;4980306;28;45467;-73
2024/02/01 02:23:12;;;;;;;;;15.50;15.25;;;;;;;;4981620;28;45384;-72
2024/02/01 02:25:38;;;;;;;;;15.00;14.00;;;;;;;;4981955;28;45464;-73
2024/02/01 02:28:03;;;;;;;;;15.75;14.25;;;;;;;;4979206;28;45989;-73
2024/02/01 02:30:28;;;;;;;;;11.67;11.67;;;;;;;;4981771;28;45261;-73
2024/02/01 02:32:54;;;;;;;;;15.50;13.00;;;;;;;;4975878;28;45632;-73
2024/02/01 02:35:19;;;;;;;;;12.75;10.75;;;;;;;;4975096;28;45331;-73
2024/02/01 02:37:47;;;;;;;;;13.67;11.67;;;;;;;;4981586;28;45464;-73
2024/02/01 02:40:17;;;;;;;;;11.75;11.75;;;;;;;;4981014;28;45411;-73
2024/02/01 02:42:42;;;;;;;;;14.50;13.50;;;;;;;;4969691;28;45405;-73
2024/02/01 02:45:07;;;;;;;;;18.00;13.50;;;;;;;;4981502;28;45501;-73
2024/02/01 02:47:33;;;;;;;;;14.75;13.50;;;;;;;;4981395;28;45668;-73
2024/02/01 02:49:58;;;;;;;;;7.33;7.33;;;;;;;;4979311;28;45673;-73
2024/02/01 02:52:23;;;;;;;;;14.25;13.50;;;;;;;;4981392;28;45468;-73
2024/02/01 02:54:49;;;;;;;;;12.33;11.33;;;;;;;;4962211;28;45467;-73
2024/02/01 02:57:14;;;;;;;;;12.00;11.67;;;;;;;;4980750;28;46035;-73
2024/02/01 02:59:39;;;;;;;;;11.00;11.00;;;;;;;;4981455;28;45239;-73
2024/02/01 03:02:07;;;;;;;;;12.67;12.67;;;;;;;;4981719;28;45243;-72
2024/02/01 03:04:35;;;;;;;;;16.75;12.75;;;;;;;;4981377;28;45468;-72
2024/02/01 03:07:00;;;;;;;;;11.75;10.00;;;;;;;;4980741;28;46087;-73
2024/02/01 03:09:25;;;;;;;;;12.00;11.75;;;;;;;;4963506;28;45298;-73
2024/02/01 03:11:51;;;;;;;;;13.00;11.25;;;;;;;;4981501;28;45250;-73
2024/02/01 03:14:16;;;;;;;;;11.00;11.00;;;;;;;;4963540;28;45522;-73
2024/02/01 03:16:42;;;;;;;;;13.67;10.67;;;;;;;;4981164;28;46245;-72
2024/02/01 03:19:11;;;;;;;;;12.50;11.25;;;;;;;;4981286;28;45688;-73
2024/02/01 03:21:36;;;;;;;;;12.75;10.50;;;;;;;;4981321;28;45479;-73
2024/02/01 03:24:02;;;;;;;;;14.00;12.00;;;;;;;;4980932;28;45461;-73
2024/02/01 03:26:34;;;;;;;;;15.00;12.50;;;;;;;;4978629;28;45421;-73
2024/02/01 03:28:59;;;;;;;;;12.00;12.00;;;;;;;;4968756;28;45247;-73
2024/02/01 03:31:33;;;;;;;;;13.50;11.75;;;;;;;;4981250;28;45523;-73
2024/02/01 03:33:59;;;;;;;;;15.75;12.75;;;;;;;;4967573;28;45379;-73
2024/02/01 03:36:25;;;;;;;;;10.50;10.25;;;;;;;;4980786;28;46197;-73
2024/02/01 03:38:50;;;;;;;;;12.67;10.67;;;;;;;;4980630;28;45492;-73
2024/02/01 03:41:15;;;;;;;;;11.33;10.67;;;;;;;;4979993;28;45528;-73
2024/02/01 03:43:40;;;;;;;;;12.33;11.33;;;;;;;;4980937;28;45410;-73
2024/02/01 03:46:05;;;;;;;;;9.33;9.33;;;;;;;;4980841;28;45475;-73
2024/02/01 03:48:32;;;;;;;;;11.33;11.00;;;;;;;;4961952;28;45648;-73
2024/02/01 03:50:57;;;;;;;;;15.00;13.50;;;;;;;;4979857;28;45740;-73
2024/02/01 03:53:23;;;;;;;;;10.33;10.33;;;;;;;;4980623;28;45489;-73
2024/02/01 03:55:51;;;;;;;;;11.33;11.33;;;;;;;;4980516;28;46225;-73
2024/02/01 03:58:18;;;;;;;;;12.00;11.25;;;;;;;;4980208;28;45587;-73
2024/02/01 04:00:46;;;;;;;;;15.75;14.25;;;;;;;;4980709;28;45335;-73
2024/02/01 04:03:15;;;;;;;;;13.50;12.75;;;;;;;;4962847;28;46509;-73
2024/02/01 04:05:40;;;;;;;;;14.25;12.50;;;;;;;;4980171;28;46069;-73
2024/02/01 04:08:07;;;;;;;;;13.50;12.00;;;;;;;;4980082;28;45362;-73
2024/02/01 04:10:35;;;;;;;;;13.25;11.50;;;;;;;;4980538;28;45382;-73
2024/02/01 04:13:09;;;;;;;;;18.00;12.50;;;;;;;;4980043;28;45512;-73
2024/02/01 04:15:34;;;;;;;;;7.00;7.00;;;;;;;;4980425;28;46394;-73
2024/02/01 04:18:04;;;;;;;;;10.50;10.50;;;;;;;;4961812;28;45846;-73
2024/02/01 04:20:29;;;;;;;;;14.50;12.00;;;;;;;;4980384;28;45475;-73
2024/02/01 04:22:55;;;;;;;;;9.25;7.75;;;;;;;;4962309;28;45812;-73
2024/02/01 04:25:20;;;;;;;;;14.00;12.00;;;;;;;;4980134;28;45357;-73
2024/02/01 04:27:49;;;;;;;;;10.75;10.75;;;;;;;;4974440;28;45342;-73
2024/02/01 04:30:15;;;;;;;;;11.75;11.75;;;;;;;;4973793;28;45377;-73
2024/02/01 04:32:40;;;;;;;;;11.25;11.00;;;;;;;;4975713;28;45538;-73
2024/02/01 04:35:06;;;;;;;;;12.00;10.33;;;;;;;;4954011;28;47521;-73
2024/02/01 04:37:32;;;;;;;;;11.75;9.25;;;;;;;;4962349;28;45450;-73
2024/02/01 04:40:00;;;;;;;;;12.75;11.25;;;;;;;;4980109;28;45535;-73
2024/02/01 04:42:29;;;;;;;;;8.50;7.25;;;;;;;;4962254;28;45283;-73
2024/02/01 04:44:57;;;;;;;;;10.00;9.00;;;;;;;;4979961;28;46986;-73
2024/02/01 04:47:23;;;;;;;;;11.50;11.50;;;;;;;;4978673;28;45834;-73
2024/02/01 04:49:48;;;;;;;;;11.00;10.50;;;;;;;;4955197;28;45406;-73
2024/02/01 04:52:13;;;;;;;;;10.00;10.00;;;;;;;;4979319;28;45563;-73
2024/02/01 04:54:39;;;;;;;;;11.33;11.00;;;;;;;;4979688;28;45452;-73
2024/02/01 04:57:08;;;;;;;;;13.25;13.25;;;;;;;;4961804;28;45346;-73
2024/02/01 04:59:33;;;;;;;;;15.00;10.50;;;;;;;;4979934;28;45582;-73
2024/02/01 05:02:04;;;;;;;;;12.00;11.00;;;;;;;;4979189;28;45489;-73
2024/02/01 05:04:29;;;;;;;;;14.00;13.00;;;;;;;;4979583;28;46183;-73
2024/02/01 05:06:54;;;;;;;;;15.33;12.00;;;;;;;;4978324;28;45450;-73
2024/02/01 05:09:25;;;;;;;;;14.00;12.00;;;;;;;;4970682;28;45290;-73
2024/02/01 05:11:51;;;;;;;;;13.75;11.00;;;;;;;;4966910;28;45395;-73
2024/02/01 05:14:16;;;;;;;;;10.50;10.50;;;;;;;;4979325;28;45451;-73
2024/02/01 05:16:41;;;;;;;;;14.67;13.00;;;;;;;;4979647;28;45409;-73
2024/02/01 05:19:08;;;;;;;;;11.00;10.33;;;;;;;;4957769;28;45401;-73
2024/02/01 05:21:33;;;;;;;;;12.50;11.50;;;;;;;;4979324;28;45408;-73
2024/02/01 05:23:58;;;;;;;;;11.00;11.00;;;;;;;;4979098;28;46267;-73
2024/02/01 05:26:24;;;;;;;;;12.00;12.00;;;;;;;;4979384;28;45409;-73
2024/02/01 05:28:49;;;;;;;;;12.50;12.50;;;;;;;;4978435;28;45378;-73
2024/02/01 05:31:15;;;;;;;;;14.50;12.50;;;;;;;;4976516;28;45545;-73
2024/02/01 05:33:40;;;;;;;;;15.75;12.75;;;;;;;;4966815;28;45644;-73
2024/02/01 05:36:06;;;;;;;;;14.67;11.33;;;;;;;;4978569;28;45506;-73
2024/02/01 05:38:31;;;;;;;;;13.75;13.00;;;;;;;;4979251;28;45431;-73
2024/02/01 05:40:56;;;;;;;;;12.75;12.75;;;;;;;;4979096;28;45479;-73
2024/02/01 05:43:22;;;;;;;;;11.00;11.00;;;;;;;;4979196;28;45560;-73
2024/02/01 05:45:47;;;;;;;;;12.33;11.00;;;;;;;;4961410;28;45401;-73
2024/02/01 05:48:12;;;;;;;;;12.00;10.67;;;;;;;;4960698;28;45346;-73
2024/02/01 05:50:38;;;;;;;;;14.00;12.75;;;;;;;;4979135;28;45549;-73
2024/02/01 05:53:03;;;;;;;;;15.75;14.00;;;;;;;;4978624;28;46462;-73
2024/02/01 05:55:29;;;;;;;;;10.00;10.00;;;;;;;;4978791;28;45400;-73
2024/02/01 05:57:54;;;;;;;;;17.50;16.00;;;;;;;;4978948;28;45436;-73
2024/02/01 06:00:21;;;;;;;;;13.00;11.67;;;;;;;;4979022;28;45295;-73
2024/02/01 06:02:47;;;;;;;;;14.00;12.50;;;;;;;;4978841;28;45332;-73
2024/02/01 06:05:13;;;;;;;;;13.00;13.00;;;;;;;;4978919;28;45409;-73
2024/02/01 06:07:38;;;;;;;;;13.00;13.00;;;;;;;;4977960;28;45428;-73
2024/02/01 06:10:04;;;;;;;;;15.00;12.67;;;;;;;;4969688;28;45488;-73
2024/02/01 06:12:29;;;;;;;;;12.25;11.75;;;;;;;;4978394;28;46071;-73
2024/02/01 06:14:54;;;;;;;;;10.75;10.75;;;;;;;;4980823;28;45448;-73
2024/02/01 06:17:20;;;;;;;;;13.00;12.00;;;;;;;;4981349;28;45698;-73
2024/02/01 06:19:45;;;;;;;;;15.00;12.75;;;;;;;;4981756;28;45321;-73
2024/02/01 06:22:10;;;;;;;;;12.00;10.67;;;;;;;;4980904;28;46271;-73
2024/02/01 06:24:36;;;;;;;;;14.33;13.00;;;;;;;;4981960;28;45449;-73
2024/02/01 06:27:01;;;;;;;;;15.50;12.25;;;;;;;;4982180;28;45294;-73
2024/02/01 06:29:27;;;;;;;;;13.50;11.25;;;;;;;;4981681;28;45355;-73
2024/02/01 06:31:52;;;;;;;;;14.75;14.00;;;;;;;;4964052;28;46455;-73
2024/02/01 06:34:24;;;;;;;;;14.33;13.00;;;;;;;;4968817;28;45444;-73
2024/02/01 06:36:53;;;;;;;;;12.50;12.50;;;;;;;;4981632;28;45469;-73
2024/02/01 06:39:38;;;;;;;;;14.00;12.75;;;;;;;;4981684;28;45508;-73
2024/02/01 06:44:48;;;;;;;;;15.00;12.25;;;;;;;;4981723;28;45393;-73
2024/02/01 06:47:23;;;;;;;;;15.50;12.25;;;;;;;;4981751;28;45344;-73
2024/02/01 06:50:02;;;;;;;;;15.50;13.25;;;;;;;;4964208;28;45539;-73
2024/02/01 06:52:39;;;;;;;;;12.25;11.25;;;;;;;;4977485;28;47002;-73
2024/02/01 07:00:50;;;;;;;;;14.00;13.00;;;;;;;;4926135;28;45607;-67
2024/02/01 07:08:26;;;;;;;;;11.33;11.33;;;;;;;;4980405;28;45424;-67
2024/02/01 07:11:30;;;;;;;;;16.25;14.00;;;;;;;;4967584;28;45360;-67
2024/02/01 07:16:35;;;;;;;;;14.50;12.00;;;;;;;;4976238;28;45277;-71
2024/02/01 07:19:23;;;;;;;;;14.25;13.25;;;;;;;;4967078;28;45315;-71
2024/02/01 07:22:03;;;;;;;;;15.25;13.75;;;;;;;;4961703;28;45374;-71
2024/02/01 07:57:36;;;;;;;;;11.00;11.00;;;;;;;;4975361;28;46486;-71
2024/02/01 08:00:01;;;;;;;;;11.50;10.00;;;;;;;;4975161;28;45539;-71
2024/02/01 08:07:54;;;;;;;;;10.25;10.25;;;;;;;;4978397;28;45775;-72
2024/02/01 08:10:20;;;;;;;;;10.00;9.50;;;;;;;;4975949;28;45393;-72
2024/02/01 08:12:45;;;;;;;;;12.33;11.00;;;;;;;;4977078;28;46484;-74
2024/02/01 08:15:18;;;;;;;;;13.75;9.75;;;;;;;;4973792;28;45709;-74
2024/02/01 08:17:43;;;;;;;;;12.50;10.00;;;;;;;;4963217;28;45655;-74
2024/02/01 08:20:11;;;;;;;;;10.33;8.00;;;;;;;;4962413;28;46113;-74
2024/02/01 08:22:41;;;;;;;;;8.75;8.00;;;;;;;;4973472;28;45401;-73
2024/02/01 08:25:06;;;;;;;;;10.25;7.25;;;;;;;;4946997;28;45799;-74
2024/02/01 08:27:31;;;;;;;;;8.50;7.75;;;;;;;;4959442;28;45377;-74
2024/02/01 08:29:57;;;;;;;;;9.00;7.33;;;;;;;;4970403;28;45253;-74
2024/02/01 08:32:22;;;;;;;;;10.00;9.25;;;;;;;;4973415;28;45268;-74
2024/02/01 08:34:48;;;;;;;;;9.25;8.75;;;;;;;;4956841;28;45781;-74
2024/02/01 08:37:13;;;;;;;;;8.00;8.00;;;;;;;;4958087;28;47513;-74
2024/02/01 08:39:45;;;;;;;;;13.00;9.33;;;;;;;;4977650;28;45385;-74
2024/02/01 08:42:12;;;;;;;;;8.00;8.00;;;;;;;;4974026;28;45441;-74
2024/02/01 08:44:37;;;;;;;;;8.75;8.75;;;;;;;;4978353;28;45320;-73
2024/02/01 08:47:02;;;;;;;;;13.00;8.33;;;;;;;;4967582;28;45474;-74
2024/02/01 08:49:36;;;;;;;;;8.75;8.75;;;;;;;;4964619;28;45528;-74
2024/02/01 08:52:01;;;;;;;;;10.25;8.25;;;;;;;;4956389;28;45441;-74
2024/02/01 08:54:26;;;;;;;;;8.00;8.00;;;;;;;;4976113;28;45671;-74
2024/02/01 08:56:51;;;;;;;;;8.00;8.00;;;;;;;;4975987;28;45469;-74
2024/02/01 08:59:22;;;;;;;;;11.00;8.50;;;;;;;;4962359;28;45555;-73
2024/02/01 09:01:48;;;;;;;;;7.25;7.25;;;;;;;;4948900;28;45863;-74
2024/02/01 09:04:14;;;;;;;;;8.33;8.33;;;;;;;;4963701;28;45428;-74
2024/02/01 09:06:39;;;;;;;;;12.75;9.75;;;;;;;;4974663;28;46214;-74
2024/02/01 09:09:24;;;;;;;;;8.33;8.33;;;;;;;;4952601;28;46188;-74
2024/02/01 09:11:49;;;;;;;;;6.50;5.00;;;;;;;;4963083;28;45483;-74
2024/02/01 09:14:14;;;;;;;;;10.33;9.33;;;;;;;;4975028;28;45687;-74
2024/02/01 09:16:39;;;;;;;;;9.33;8.00;;;;;;;;4974725;28;45704;-74
2024/02/01 09:19:05;;;;;;;;;9.67;9.67;;;;;;;;4975657;28;45391;-73
2024/02/01 09:21:30;;;;;;;;;9.33;9.33;;;;;;;;4979096;28;45428;-74
2024/02/01 09:23:55;;;;;;;;;13.00;9.50;;;;;;;;4968134;28;45616;-73
2024/02/01 09:26:20;;;;;;;;;7.00;7.00;;;;;;;;4973067;28;45974;-74
2024/02/01 09:28:46;;;;;;;;;8.50;8.50;;;;;;;;4967889;28;45307;-74
2024/02/01 09:31:21;;;;;;;;;8.33;7.33;;;;;;;;4976040;28;45531;-73
2024/02/01 09:33:47;;;;;;;;;10.25;9.25;;;;;;;;4976177;28;45447;-74
2024/02/01 09:36:13;;;;;;;;;12.75;11.00;;;;;;;;4973697;28;45891;-73
2024/02/01 09:38:38;;;;;;;;;8.50;8.50;;;;;;;;4971958;28;45339;-73
2024/02/01 09:41:15;;;;;;;;;10.33;9.67;;;;;;;;4971703;28;45304;-74
2024/02/01 09:43:40;;;;;;;;;11.50;11.00;;;;;;;;4976894;28;45382;-74
2024/02/01 09:46:08;;;;;;;;;11.50;10.00;;;;;;;;4973968;28;45467;-72
2024/02/01 09:48:38;;;;;;;;;8.25;7.00;;;;;;;;4964748;28;45486;-73
2024/02/01 09:51:03;;;;;;;;;7.00;7.00;;;;;;;;4979107;28;45410;-73
2024/02/01 09:53:29;;;;;;;;;7.25;5.50;;;;;;;;4979165;28;45596;-73
2024/02/01 09:55:58;;;;;;;;;10.25;7.75;;;;;;;;4971867;28;46378;-74
2024/02/01 09:58:24;;;;;;;;;10.00;7.75;;;;;;;;4978662;28;45517;-74
2024/02/01 10:00:50;;;;;;;;;5.25;5.25;;;;;;;;4975995;28;45415;-74
2024/02/01 10:03:22;;;;;;;;;7.50;7.00;;;;;;;;4975171;28;45381;-74
2024/02/01 10:05:48;;;;;;;;;7.75;6.00;;;;;;;;4974791;28;45527;-74
2024/02/01 10:08:14;;;;;;;;;7.00;7.00;;;;;;;;4969796;28;45741;-74
2024/02/01 10:10:41;;;;;;;;;8.75;8.00;;;;;;;;4980428;28;45654;-73
2024/02/01 10:13:06;;;;;;;;;6.00;5.00;;;;;;;;4981417;28;45658;-74
2024/02/01 10:15:32;;;;;;;;;7.67;6.00;;;;;;;;4981589;28;46273;-74
2024/02/01 10:17:58;;;;;;;;;2.00;2.00;;;;;;;;4981701;28;45350;-74
2024/02/01 10:20:33;;;;;;;;;5.50;4.50;;;;;;;;4978597;28;45395;-73
2024/02/01 10:22:59;;;;;;;;;5.75;5.00;;;;;;;;4975722;28;45283;-73
2024/02/01 10:25:33;;;;;;;;;2.00;1.00;;;;;;;;4971581;28;45690;-73
2024/02/01 10:28:00;;;;;;;;;7.50;5.00;;;;;;;;4975832;28;45581;-73
2024/02/01 10:30:25;;;;;;;;;5.00;3.00;;;;;;;;4974519;28;45461;-73
2024/02/01 10:32:51;;;;;;;;;3.00;2.33;;;;;;;;4975964;28;45608;-74
2024/02/01 10:35:17;;;;;;;;;5.50;3.00;;;;;;;;4981128;28;46293;-73
2024/02/01 10:37:44;;;;;;;;;2.00;2.00;;;;;;;;4980633;28;45484;-73
2024/02/01 10:40:10;;;;;;;;;3.25;3.25;;;;;;;;4977377;28;45424;-70
2024/02/01 10:42:36;;;;;;;;;7.00;3.50;;;;;;;;4978984;28;45531;-73
2024/02/01 10:45:07;;;;;;;;;4.75;3.25;;;;;;;;4950191;28;46338;-73
2024/02/01 10:47:33;;;;;;;;;3.00;3.00;;;;;;;;4980889;28;45426;-74
2024/02/01 10:49:59;;;;;;;;;3.00;3.00;;;;;;;;4957556;28;45437;-74
2024/02/01 10:52:27;;;;;;;;;4.00;4.00;;;;;;;;4963071;28;45552;-74
2024/02/01 10:54:53;;;;;;;;;4.00;3.00;;;;;;;;4980287;28;46105;-75
2024/02/01 10:57:19;;;;;;;;;5.25;4.50;;;;;;;;4976664;28;45483;-73
2024/02/01 10:59:48;;;;;;;;;2.00;2.00;;;;;;;;4960032;28;45448;-73
2024/02/01 11:02:15;;;;;;;;;4.25;4.25;;;;;;;;4967195;28;45560;-73
2024/02/01 11:04:44;;;;;;;;;5.00;4.25;;;;;;;;4977475;28;46098;-73
2024/02/01 11:07:17;;;;;;;;;4.50;4.50;;;;;;;;4979970;28;45542;-73
2024/02/01 11:09:43;;;;;;;;;4.00;4.00;;;;;;;;4976414;28;46914;-73
2024/02/01 11:12:13;;;;;;;;;7.00;4.00;;;;;;;;4971564;28;45439;-73
2024/02/01 11:14:39;;;;;;;;;4.00;4.00;;;;;;;;4968231;28;47046;-73
2024/02/01 11:17:09;;;;;;;;;1.00;1.00;;;;;;;;4979051;28;46022;-73
2024/02/01 11:19:35;;;;;;;;;3.00;3.00;;;;;;;;4968465;28;45445;-73
2024/02/01 11:22:04;;;;;;;;;5.25;4.25;;;;;;;;4985441;28;45334;-73
2024/02/01 11:24:30;;;;;;;;;5.25;5.25;;;;;;;;4970684;28;45536;-74
2024/02/01 11:27:00;;;;;;;;;5.00;3.25;;;;;;;;4971287;28;45469;-74
2024/02/01 11:29:27;;;;;;;;;3.50;3.00;;;;;;;;4979272;28;45467;-73
2024/02/01 11:31:57;;;;;;;;;3.00;3.00;;;;;;;;4975645;28;45464;-74
2024/02/01 11:34:25;;;;;;;;;6.50;4.75;;;;;;;;4978848;28;46430;-74
2024/02/01 11:36:51;;;;;;;;;5.25;4.25;;;;;;;;4968739;28;45816;-74
2024/02/01 11:39:17;;;;;;;;;5.25;4.25;;;;;;;;4976642;28;45472;-73
2024/02/01 11:41:48;;;;;;;;;8.25;5.00;;;;;;;;4979904;28;45376;-74
2024/02/01 11:44:18;;;;;;;;;2.75;2.75;;;;;;;;4973952;28;46519;-74
2024/02/01 11:46:46;;;;;;;;;2.50;2.50;;;;;;;;4978439;28;45856;-74
2024/02/01 11:49:16;;;;;;;;;5.00;5.00;;;;;;;;4978825;28;45654;-74
2024/02/01 11:51:41;;;;;;;;;4.75;4.75;;;;;;;;4974338;28;45527;-74
2024/02/01 11:54:09;;;;;;;;;7.00;6.75;;;;;;;;4972269;28;45613;-74
2024/02/01 11:56:34;;;;;;;;;4.00;3.50;;;;;;;;4979622;28;45385;-74
2024/02/01 11:58:59;;;;;;;;;5.00;5.00;;;;;;;;4953648;28;45839;-74
2024/02/01 12:01:24;;;;;;;;;6.33;6.33;;;;;;;;4970644;28;45566;-74
2024/02/01 12:03:49;;;;;;;;;7.00;5.75;;;;;;;;4961641;28;47231;-74
2024/02/01 12:06:17;;;;;;;;;5.00;5.00;;;;;;;;4942204;28;45694;-74
2024/02/01 12:08:43;;;;;;;;;6.00;6.00;;;;;;;;4927569;28;45816;-75
2024/02/01 12:11:08;;;;;;;;;7.75;5.50;;;;;;;;4942135;28;45886;-75
2024/02/01 12:13:33;;;;;;;;;5.33;5.00;;;;;;;;4924749;28;47368;-75
2024/02/01 12:15:59;;;;;;;;;4.00;4.00;;;;;;;;4937187;28;46472;-75
2024/02/01 12:18:24;;;;;;;;;4.00;4.00;;;;;;;;4938727;28;45839;-75
2024/02/01 12:20:49;;;;;;;;;8.00;8.00;;;;;;;;4941451;28;45968;-74
2024/02/01 12:23:14;;;;;;;;;6.00;6.00;;;;;;;;4938402;28;46883;-74
2024/02/01 12:25:44;;;;;;;;;8.00;7.00;;;;;;;;4947165;28;45443;-73
2024/02/01 12:28:11;;;;;;;;;7.50;7.50;;;;;;;;4969793;28;45591;-74
2024/02/01 12:30:37;;;;;;;;;9.75;9.00;;;;;;;;4948025;28;45989;-74
2024/02/01 12:33:02;;;;;;;;;6.25;6.25;;;;;;;;4936070;28;47531;-74
2024/02/01 12:35:28;;;;;;;;;10.00;9.50;;;;;;;;4943960;28;45480;-74
2024/02/01 12:37:53;;;;;;;;;7.00;7.00;;;;;;;;4936734;28;45807;-74
2024/02/01 12:40:18;;;;;;;;;8.00;7.00;;;;;;;;4938098;28;46181;-74
2024/02/01 12:42:45;;;;;;;;;8.00;8.00;;;;;;;;4938565;28;45798;-70
2024/02/01 12:45:20;;;;;;;;;7.00;7.00;;;;;;;;4943759;28;45546;-72
2024/02/01 12:47:51;;;;;;;;;6.75;6.75;;;;;;;;4933978;28;46792;-72
2024/02/01 12:50:16;;;;;;;;;7.25;7.25;;;;;;;;4927893;28;45717;-73
2024/02/01 12:52:42;;;;;;;;;7.25;7.25;;;;;;;;4937231;28;46375;-74
2024/02/01 12:55:08;;;;;;;;;8.25;8.25;;;;;;;;4940775;28;45953;-73
2024/02/01 12:57:34;;;;;;;;;7.75;7.75;;;;;;;;4941184;28;45949;-73
2024/02/01 12:59:59;;;;;;;;;10.75;10.50;;;;;;;;4948028;28;46539;-74
2024/02/01 13:02:28;;;;;;;;;8.00;7.50;;;;;;;;4977624;28;45457;-72
2024/02/01 13:04:53;;;;;;;;;7.75;7.75;;;;;;;;4963161;28;45531;-72
2024/02/01 13:07:22;;;;;;;;;7.00;7.00;;;;;;;;4969970;28;45420;-73
2024/02/01 13:09:47;;;;;;;;;8.25;7.50;;;;;;;;4970763;28;45499;-74
2024/02/01 13:12:18;;;;;;;;;9.00;9.00;;;;;;;;4973180;28;46401;-74
2024/02/01 13:14:59;;;;;;;;;8.00;7.50;;;;;;;;4978912;28;45372;-74
2024/02/01 13:17:33;;;;;;;;;5.25;4.75;;;;;;;;4979439;28;45349;-74
2024/02/01 13:19:59;;;;;;;;;7.00;7.00;;;;;;;;4977435;28;45706;-74
2024/02/01 13:22:25;;;;;;;;;6.75;6.75;;;;;;;;4978624;28;47050;-74
2024/02/01 13:24:50;;;;;;;;;8.50;7.00;;;;;;;;4977089;28;45319;-72
2024/02/01 13:27:15;;;;;;;;;7.75;7.00;;;;;;;;4968744;28;46010;-72
2024/02/01 13:29:43;;;;;;;;;6.67;6.67;;;;;;;;4964203;28;45849;-72
2024/02/01 13:32:08;;;;;;;;;6.00;6.00;;;;;;;;4974866;28;46208;-73
2024/02/01 13:34:40;;;;;;;;;8.33;8.00;;;;;;;;4962155;28;45690;-74
2024/02/01 13:37:06;;;;;;;;;7.00;7.00;;;;;;;;4976276;28;45705;-73
2024/02/01 13:39:33;;;;;;;;;7.00;7.00;;;;;;;;4968715;28;45357;-72
2024/02/01 13:41:59;;;;;;;;;7.25;7.25;;;;;;;;4967447;28;46959;-72
2024/02/01 13:44:25;;;;;;;;;12.50;8.50;;;;;;;;4970236;28;45599;-72
2024/02/01 13:46:50;;;;;;;;;7.50;7.00;;;;;;;;4972429;28;45753;-72
2024/02/01 13:49:15;;;;;;;;;7.33;7.33;;;;;;;;4973605;28;45473;-73
2024/02/01 13:51:41;;;;;;;;;8.50;7.50;;;;;;;;4972596;28;46174;-73
2024/02/01 13:54:06;;;;;;;;;9.33;8.33;;;;;;;;4961495;28;46309;-72
2024/02/01 13:56:31;;;;;;;;;7.50;7.50;;;;;;;;4978195;28;45353;-72
2024/02/01 13:58:56;;;;;;;;;9.00;8.00;;;;;;;;4974747;28;45379;-71
2024/02/01 14:01:22;;;;;;;;;6.00;6.00;;;;;;;;4974401;28;47109;-72
2024/02/01 14:03:47;;;;;;;;;4.00;4.00;;;;;;;;4977848;28;45294;-72
2024/02/01 14:06:12;;;;;;;;;5.00;5.00;;;;;;;;4975945;28;45293;-72
2024/02/01 14:08:37;;;;;;;;;7.00;6.00;;;;;;;;4978377;28;45345;-72
2024/02/01 14:11:04;;;;;;;;;5.00;5.00;;;;;;;;4977659;28;45336;-72
2024/02/01 14:13:29;;;;;;;;;8.00;7.00;;;;;;;;4978521;28;45353;-72
2024/02/01 14:15:54;;;;;;;;;7.50;5.00;;;;;;;;4978341;28;45407;-72
2024/02/01 14:18:22;;;;;;;;;5.25;4.75;;;;;;;;4967420;28;45530;-72
2024/02/01 14:20:47;;;;;;;;;5.50;5.50;;;;;;;;4975318;28;46228;-72
2024/02/01 14:23:14;;;;;;;;;7.33;7.00;;;;;;;;4978564;28;45408;-72
2024/02/01 14:25:39;;;;;;;;;12.00;8.75;;;;;;;;4975895;28;45736;-72
2024/02/01 14:28:05;;;;;;;;;13.33;11.33;;;;;;;;4975899;28;45537;-72
2024/02/01 14:30:30;;;;;;;;;11.00;10.50;;;;;;;;4959974;28;47229;-72
2024/02/01 14:32:55;;;;;;;;;11.00;10.33;;;;;;;;4972110;28;45398;-72
2024/02/01 14:35:20;;;;;;;;;13.00;13.00;;;;;;;;4977214;28;45330;-72
2024/02/01 14:37:45;;;;;;;;;14.33;14.00;;;;;;;;4973268;28;45376;-72
2024/02/01 14:40:11;;;;;;;;;12.00;12.00;;;;;;;;4980921;28;46472;-72
2024/02/01 14:42:37;;;;;;;;;15.75;12.50;;;;;;;;4976773;28;45444;-72
2024/02/01 14:45:02;;;;;;;;;11.50;11.00;;;;;;;;4980987;28;45538;-72
2024/02/01 14:47:27;;;;;;;;;12.25;12.00;;;;;;;;4979266;28;45251;-72
2024/02/01 14:49:52;;;;;;;;;13.33;13.33;;;;;;;;4973174;28;45479;-72
2024/02/01 14:52:18;;;;;;;;;12.67;10.00;;;;;;;;4980182;28;45223;-72
2024/02/01 14:54:44;;;;;;;;;14.75;10.25;;;;;;;;4980302;28;45898;-72
2024/02/01 14:57:09;;;;;;;;;12.75;11.25;;;;;;;;4967932;28;45412;-72
2024/02/01 14:59:34;;;;;;;;;11.33;11.33;;;;;;;;4977992;28;46221;-72
2024/02/01 15:02:00;;;;;;;;;14.00;12.33;;;;;;;;4980715;28;45357;-72
2024/02/01 15:04:27;;;;;;;;;10.00;9.67;;;;;;;;4979568;28;45563;-72
2024/02/01 15:06:52;;;;;;;;;12.75;12.75;;;;;;;;4972429;28;45539;-72
2024/02/01 15:09:17;;;;;;;;;14.00;11.33;;;;;;;;4968688;28;46134;-72
2024/02/01 15:11:42;;;;;;;;;14.67;14.67;;;;;;;;4961775;28;45422;-72
2024/02/01 15:14:12;;;;;;;;;15.33;13.00;;;;;;;;4971127;28;45524;-72
2024/02/01 15:16:37;;;;;;;;;13.75;13.25;;;;;;;;4974092;28;45400;-72
2024/02/01 15:19:03;;;;;;;;;23.33;19.00;;;;;;;;4960515;28;46000;-72